aviador You're here:

SKRG Decoded Metar

RIO NEGRO in COLOMBIA
Report Time2018-02-20 03:00:00
UTC Time2018-02-20 03:47:40
Flight Rules vfr VFR
WindCalm
Visibility9999 m
Phenomena:N/A
Clouds:Scattered 015 Hf
Scattered 200 Hf
Expected CloudBase > 400 ft AGL from Temp-Dew spread
CeilingNone
Temp16°C (ISA +15)
Dew Point15°C (94% RH)
QNH1025 hPa
Density Alt8,606 ft
Elevation7,020 ft
Report Wrong Elevation
Raw Report
SKRG 200300Z 00000KT 9999 SCT015 SCT200 16/15 A3028=

Extra information for SKRG:More info

Metar Taf Metar & Taf Last 4 Metars F.Rules Stats Wind Profile Meteogram Temp Stats Airport Information Weather charts Add Link Nearby VenuesMetar ALERT Operation Metar Decoded Social comments